Time;durP1;ratioP1;P1;durP2;ratioP2;P2;SDS_P1;SDS_P2;PMS_P1;PMS_P2;Temp;Humidity;BMP_temperature;BMP_pressure;BME280_temperature;BME280_humidity;BME280_pressure;Samples;Min_cycle;Max_cycle;Signal;HPM_P1;HPM_P2
2021/05/10 00:01:45;;;;;;;17.10;16.50;;;18.80;5.90;;;;;;5095564;28;20453;-71
2021/05/10 00:04:10;;;;;;;18.07;17.17;;;18.80;6.80;;;;;;5094642;28;20412;-74
2021/05/10 00:06:36;;;;;;;18.03;17.10;;;18.80;6.70;;;;;;5095296;28;20590;-71
2021/05/10 00:09:04;;;;;;;17.63;16.90;;;18.80;6.80;;;;;;5095223;28;20202;-72
2021/05/10 00:11:31;;;;;;;16.80;16.20;;;18.80;6.70;;;;;;5094927;28;20166;-73
2021/05/10 00:13:57;;;;;;;17.40;16.70;;;18.70;6.60;;;;;;5095970;28;20419;-72
2021/05/10 00:16:22;;;;;;;17.60;16.90;;;18.60;6.60;;;;;;5095720;28;20652;-72
2021/05/10 00:18:48;;;;;;;17.70;17.10;;;18.60;6.60;;;;;;5095597;28;20173;-73
2021/05/10 00:21:14;;;;;;;17.03;16.43;;;18.60;6.80;;;;;;5094993;28;20169;-72
2021/05/10 00:23:39;;;;;;;17.07;16.40;;;18.60;6.20;;;;;;5094448;28;20200;-73
2021/05/10 00:26:05;;;;;;;17.17;16.47;;;18.60;5.50;;;;;;5095443;28;20190;-73
2021/05/10 00:28:31;;;;;;;18.10;17.40;;;18.60;5.60;;;;;;5095642;28;20169;-71
2021/05/10 00:30:56;;;;;;;17.20;16.60;;;18.60;5.70;;;;;;5093903;28;20212;-73
2021/05/10 00:33:22;;;;;;;17.03;16.40;;;18.50;6.10;;;;;;5095763;28;20177;-72
2021/05/10 00:35:47;;;;;;;18.10;17.23;;;18.50;6.20;;;;;;5095126;28;20189;-71
2021/05/10 00:38:13;;;;;;;18.20;17.10;;;18.40;6.40;;;;;;5095798;28;20188;-72
2021/05/10 00:40:39;;;;;;;17.53;16.83;;;18.40;6.40;;;;;;5095386;28;20200;-73
2021/05/10 00:43:04;;;;;;;16.73;16.13;;;18.40;5.50;;;;;;5095102;28;20197;-72
2021/05/10 00:45:30;;;;;;;16.87;16.03;;;18.50;6.90;;;;;;5094718;28;20235;-72
2021/05/10 00:47:56;;;;;;;16.73;16.03;;;18.40;7.00;;;;;;5094113;28;20181;-73
2021/05/10 00:50:25;;;;;;;15.83;15.23;;;18.20;7.70;;;;;;5095195;28;20637;-72
2021/05/10 00:52:50;;;;;;;16.10;15.50;;;18.00;8.10;;;;;;5094494;28;20422;-72
2021/05/10 00:55:17;;;;;;;16.80;16.10;;;17.90;8.40;;;;;;5094375;28;20458;-73
2021/05/10 00:57:51;;;;;;;16.03;15.43;;;17.80;8.70;;;;;;5094874;28;20182;-71
2021/05/10 01:00:19;;;;;;;15.43;14.83;;;17.60;8.50;;;;;;5094211;28;20418;-71
2021/05/10 01:02:45;;;;;;;15.03;14.53;;;17.50;8.90;;;;;;5094418;28;20579;-71
2021/05/10 01:05:12;;;;;;;15.20;14.70;;;17.50;9.10;;;;;;5092582;28;20494;-71
2021/05/10 01:07:38;;;;;;;15.57;14.87;;;17.40;8.70;;;;;;5094435;28;20914;-71
2021/05/10 01:10:10;;;;;;;16.00;15.40;;;17.40;9.30;;;;;;5097166;28;20481;-71
2021/05/10 01:12:36;;;;;;;15.70;14.90;;;17.20;9.00;;;;;;5098042;28;21037;-71
2021/05/10 01:15:05;;;;;;;15.57;14.67;;;17.20;9.30;;;;;;5098168;28;20457;-69
2021/05/10 01:17:31;;;;;;;15.57;14.97;;;17.10;10.10;;;;;;5097500;28;20789;-71
2021/05/10 01:19:58;;;;;;;14.50;14.00;;;17.10;10.10;;;;;;5098144;28;20429;-69
2021/05/10 01:22:35;;;;;;;15.27;14.67;;;17.00;10.00;;;;;;5098335;28;20468;-71
2021/05/10 01:25:00;;;;;;;14.50;14.00;;;16.90;10.50;;;;;;5098666;28;20434;-71
2021/05/10 01:27:26;;;;;;;15.03;14.33;;;16.90;10.00;;;;;;5098225;28;20417;-71
2021/05/10 01:29:52;;;;;;;14.63;14.03;;;16.80;10.10;;;;;;5097921;28;20211;-71
2021/05/10 01:32:17;;;;;;;14.57;13.97;;;16.80;10.30;;;;;;5098168;28;20181;-70
2021/05/10 01:34:43;;;;;;;14.10;13.50;;;16.70;10.90;;;;;;5098938;28;20207;-70
2021/05/10 01:37:08;;;;;;;15.20;14.60;;;16.60;10.50;;;;;;5098159;28;20179;-71
2021/05/10 01:39:34;;;;;;;15.23;14.40;;;16.60;10.80;;;;;;5098238;28;20181;-70
2021/05/10 01:41:59;;;;;;;14.77;14.17;;;16.60;11.00;;;;;;5098007;28;20201;-71
2021/05/10 01:44:25;;;;;;;14.57;14.07;;;16.60;10.80;;;;;;5097357;28;20183;-71
2021/05/10 01:46:50;;;;;;;15.10;14.47;;;16.50;10.70;;;;;;5097390;28;20184;-71
2021/05/10 01:49:16;;;;;;;15.20;14.50;;;16.60;10.90;;;;;;5097070;28;20180;-69
2021/05/10 01:51:41;;;;;;;15.17;14.53;;;16.60;10.30;;;;;;5097889;28;20188;-71
2021/05/10 01:54:07;;;;;;;15.60;15.00;;;16.60;9.70;;;;;;5097541;28;20192;-71
2021/05/10 01:56:35;;;;;;;15.40;14.80;;;16.70;9.80;;;;;;5096796;28;20212;-71
2021/05/10 01:59:00;;;;;;;15.13;14.63;;;16.80;9.90;;;;;;5096241;28;20173;-71
2021/05/10 02:01:26;;;;;;;15.20;14.60;;;17.00;10.10;;;;;;5096165;28;20494;-71
2021/05/10 02:03:51;;;;;;;15.03;14.43;;;17.10;10.10;;;;;;5098172;28;20182;-69
2021/05/10 02:06:17;;;;;;;14.60;14.00;;;17.30;9.70;;;;;;5097316;28;20189;-72
2021/05/10 02:08:44;;;;;;;15.00;14.27;;;17.30;9.70;;;;;;5096757;28;20173;-71
2021/05/10 02:11:09;;;;;;;15.10;14.50;;;17.40;10.30;;;;;;5096540;28;20181;-70
2021/05/10 02:13:35;;;;;;;15.20;14.60;;;17.30;10.20;;;;;;5096669;28;20476;-72
2021/05/10 02:16:02;;;;;;;15.30;14.70;;;17.40;9.50;;;;;;5096257;28;20199;-71
2021/05/10 02:18:32;;;;;;;15.70;14.90;;;17.40;9.00;;;;;;5096163;28;20203;-70
2021/05/10 02:20:58;;;;;;;15.63;15.00;;;17.50;8.80;;;;;;5096191;28;20409;-71
2021/05/10 02:23:29;;;;;;;15.43;14.83;;;17.50;8.60;;;;;;5096818;28;20447;-70
2021/05/10 02:25:57;;;;;;;15.83;15.23;;;17.60;8.00;;;;;;5096240;28;20935;-71
2021/05/10 02:28:25;;;;;;;16.13;15.53;;;17.80;8.00;;;;;;5096551;28;20406;-70
2021/05/10 02:30:53;;;;;;;16.03;15.43;;;17.90;7.00;;;;;;5096509;28;20502;-71
2021/05/10 02:33:21;;;;;;;17.63;16.73;;;18.00;6.50;;;;;;5096304;28;20412;-71
2021/05/10 02:35:48;;;;;;;17.60;16.80;;;18.10;6.30;;;;;;5096355;28;20431;-71
2021/05/10 02:38:15;;;;;;;16.63;15.83;;;18.20;6.30;;;;;;5096074;28;20538;-71
2021/05/10 02:40:42;;;;;;;16.53;15.83;;;18.20;6.90;;;;;;5096281;28;20449;-71
2021/05/10 02:43:08;;;;;;;16.90;16.30;;;18.20;6.60;;;;;;5096269;28;20494;-72
2021/05/10 02:45:33;;;;;;;16.37;15.67;;;18.20;6.70;;;;;;5095917;28;20514;-71
2021/05/10 02:47:59;;;;;;;17.40;16.70;;;18.20;6.30;;;;;;5095498;28;20423;-72
2021/05/10 02:50:27;;;;;;;17.00;16.30;;;18.10;6.30;;;;;;5095841;28;20200;-71
2021/05/10 02:52:53;;;;;;;17.20;16.50;;;18.10;6.60;;;;;;5095350;28;20430;-70
2021/05/10 02:55:19;;;;;;;17.77;16.77;;;18.10;6.20;;;;;;5095671;28;20451;-69
2021/05/10 02:57:49;;;;;;;16.90;16.20;;;18.10;6.30;;;;;;5095304;28;20431;-71
2021/05/10 03:00:17;;;;;;;17.80;17.10;;;18.30;6.40;;;;;;5095661;28;20418;-71
2021/05/10 03:02:43;;;;;;;17.67;16.97;;;18.30;6.40;;;;;;5095559;28;20462;-71
2021/05/10 03:05:11;;;;;;;16.90;16.07;;;18.20;6.30;;;;;;5096271;28;20431;-71
2021/05/10 03:07:37;;;;;;;17.00;16.40;;;18.20;6.60;;;;;;5095395;28;20539;-71
2021/05/10 03:10:13;;;;;;;16.80;16.20;;;18.40;6.40;;;;;;5095419;28;20964;-71
2021/05/10 03:12:39;;;;;;;17.03;16.23;;;18.30;6.80;;;;;;5095275;28;20464;-71
2021/05/10 03:15:08;;;;;;;16.90;16.30;;;18.40;6.50;;;;;;5095398;28;20439;-69
2021/05/10 03:17:34;;;;;;;16.77;16.17;;;18.50;6.50;;;;;;5096942;28;20419;-71
2021/05/10 03:19:59;;;;;;;17.10;16.40;;;18.50;6.50;;;;;;5095400;28;20422;-72
2021/05/10 03:22:25;;;;;;;15.90;15.30;;;18.50;6.50;;;;;;5095547;28;20451;-70
2021/05/10 03:24:51;;;;;;;17.40;16.60;;;18.60;6.60;;;;;;5095667;28;20201;-71
2021/05/10 03:27:16;;;;;;;17.00;16.40;;;18.60;6.60;;;;;;5096209;28;20212;-71
2021/05/10 03:29:42;;;;;;;17.77;17.07;;;18.70;6.70;;;;;;5095514;28;20216;-71
2021/05/10 03:32:07;;;;;;;17.77;17.17;;;18.80;6.50;;;;;;5093552;28;20181;-70
2021/05/10 03:34:33;;;;;;;17.53;16.73;;;19.00;6.20;;;;;;5095198;28;20537;-71
2021/05/10 03:36:58;;;;;;;17.70;17.00;;;19.00;6.10;;;;;;5095815;28;20630;-72
2021/05/10 03:39:24;;;;;;;17.63;17.03;;;19.10;6.40;;;;;;5096099;28;20177;-71
2021/05/10 03:41:50;;;;;;;18.47;17.67;;;19.00;6.90;;;;;;5096115;28;20823;-71
2021/05/10 03:44:15;;;;;;;18.27;17.57;;;19.00;6.40;;;;;;5095732;28;20202;-70
2021/05/10 03:46:41;;;;;;;18.00;17.40;;;19.00;6.90;;;;;;5095927;28;20602;-72
2021/05/10 03:49:06;;;;;;;19.00;18.00;;;19.00;6.90;;;;;;5095791;28;20524;-74
2021/05/10 03:51:32;;;;;;;17.47;16.70;;;19.00;6.90;;;;;;5095859;28;20176;-71
2021/05/10 03:53:58;;;;;;;16.60;15.80;;;18.90;9.30;;;;;;5095691;28;20177;-70
2021/05/10 03:56:23;;;;;;;16.30;15.60;;;18.70;9.90;;;;;;5322684;22;20494;-70
2021/05/10 03:58:49;;;;;;;17.10;16.30;;;18.50;9.90;;;;;;5096724;28;20244;-72
2021/05/10 04:01:14;;;;;;;16.73;16.13;;;18.40;9.70;;;;;;5096231;28;20194;-72
2021/05/10 04:03:49;;;;;;;16.50;15.70;;;18.30;10.50;;;;;;5095600;28;20201;-72
2021/05/10 04:06:24;;;;;;;16.47;15.70;;;18.20;10.90;;;;;;5096987;28;20191;-72
2021/05/10 04:09:11;;;;;;;16.33;15.73;;;18.10;10.80;;;;;;5096970;28;20410;-71
2021/05/10 04:14:21;;;;;;;16.23;15.63;;;18.00;10.70;;;;;;5096738;28;20406;-72
2021/05/10 04:16:46;;;;;;;17.17;16.37;;;18.00;10.70;;;;;;5096438;28;20431;-71
2021/05/10 04:19:12;;;;;;;14.73;14.03;;;17.90;10.60;;;;;;5095743;28;21000;-72
2021/05/10 04:21:37;;;;;;;13.20;12.60;;;17.80;13.70;;;;;;5097032;28;20173;-72
2021/05/10 04:24:03;;;;;;;13.27;12.67;;;17.70;15.00;;;;;;5096835;28;20185;-72
2021/05/10 04:26:29;;;;;;;13.43;12.83;;;17.50;14.80;;;;;;5096334;28;20212;-72
2021/05/10 04:28:55;;;;;;;13.53;13.03;;;17.40;14.80;;;;;;5096342;28;20414;-71
2021/05/10 04:31:20;;;;;;;13.80;13.20;;;17.40;14.80;;;;;;5096404;28;20172;-72
2021/05/10 04:33:46;;;;;;;14.00;13.40;;;17.30;14.70;;;;;;5095372;28;20661;-73
2021/05/10 04:36:11;;;;;;;12.10;11.60;;;17.30;14.80;;;;;;5096451;28;20551;-73
2021/05/10 04:38:40;;;;;;;13.27;12.47;;;17.30;16.10;;;;;;5096058;28;20238;-70
2021/05/10 04:41:06;;;;;;;12.50;12.00;;;17.40;16.00;;;;;;5095658;28;20185;-73
2021/05/10 04:43:32;;;;;;;12.87;12.23;;;17.40;16.00;;;;;;5097547;28;20470;-71
2021/05/10 04:45:59;;;;;;;12.77;12.20;;;17.30;16.10;;;;;;5099866;28;20243;-72
2021/05/10 04:48:26;;;;;;;13.03;12.33;;;17.40;16.20;;;;;;5100019;28;20169;-73
2021/05/10 04:50:51;;;;;;;12.10;11.50;;;17.50;16.10;;;;;;5099232;28;20411;-73
2021/05/10 04:53:17;;;;;;;12.60;12.10;;;17.70;16.40;;;;;;5099512;28;20414;-71
2021/05/10 04:55:42;;;;;;;13.00;12.30;;;17.90;15.10;;;;;;5099882;28;20273;-71
2021/05/10 04:58:08;;;;;;;14.30;13.50;;;18.10;15.20;;;;;;5101054;28;20185;-72
2021/05/10 05:00:35;;;;;;;13.63;13.03;;;18.20;15.00;;;;;;5099607;28;20177;-73
2021/05/10 05:03:00;;;;;;;14.23;13.63;;;18.40;14.90;;;;;;5100066;28;20201;-72
2021/05/10 05:05:26;;;;;;;14.37;13.60;;;18.50;14.40;;;;;;5097508;28;20447;-73
2021/05/10 05:07:51;;;;;;;13.20;12.50;;;18.50;14.90;;;;;;5098900;28;20289;-73
2021/05/10 05:10:17;;;;;;;13.37;12.77;;;18.50;15.40;;;;;;5098809;28;20646;-73
2021/05/10 05:12:45;;;;;;;13.43;12.87;;;18.60;15.00;;;;;;5098744;28;20271;-74
2021/05/10 05:15:11;;;;;;;13.23;12.43;;;18.60;15.00;;;;;;5099326;28;20205;-73
2021/05/10 05:17:37;;;;;;;13.73;13.13;;;18.70;15.40;;;;;;5098502;28;20484;-73
2021/05/10 05:20:04;;;;;;;12.60;12.10;;;18.70;15.10;;;;;;5098922;28;20189;-73
2021/05/10 05:22:30;;;;;;;12.43;11.93;;;18.70;15.60;;;;;;5099121;28;20470;-72
2021/05/10 05:24:57;;;;;;;12.60;12.10;;;18.70;16.20;;;;;;5098579;28;20424;-72
2021/05/10 05:27:23;;;;;;;14.80;14.10;;;18.80;15.70;;;;;;5099032;28;20170;-73
2021/05/10 05:29:49;;;;;;;13.70;12.70;;;18.70;15.60;;;;;;5114703;28;20412;-74
2021/05/10 05:32:14;;;;;;;14.33;13.33;;;18.70;15.60;;;;;;5099072;28;20407;-73
2021/05/10 05:34:40;;;;;;;14.90;13.70;;;18.80;15.50;;;;;;5097937;28;20181;-70
2021/05/10 05:37:05;;;;;;;14.03;13.30;;;18.90;15.40;;;;;;5099287;28;20170;-73
2021/05/10 05:39:31;;;;;;;16.57;14.83;;;18.90;15.50;;;;;;5098633;28;20177;-73
2021/05/10 05:41:57;;;;;;;14.63;13.53;;;19.00;15.80;;;;;;5098526;28;20236;-73
2021/05/10 05:44:23;;;;;;;15.70;14.57;;;19.00;15.80;;;;;;5098681;28;20414;-72
2021/05/10 05:46:49;;;;;;;15.43;14.33;;;18.90;15.30;;;;;;5098445;28;20193;-70
2021/05/10 05:49:16;;;;;;;13.87;13.10;;;18.80;15.40;;;;;;5097322;28;20195;-73
2021/05/10 05:51:45;;;;;;;12.80;12.10;;;18.70;15.60;;;;;;5098958;28;20426;-73
2021/05/10 05:54:12;;;;;;;12.30;11.20;;;18.50;16.60;;;;;;5099158;28;20435;-72
2021/05/10 05:56:38;;;;;;;11.73;11.03;;;18.40;17.70;;;;;;5113759;28;20459;-72
2021/05/10 05:59:04;;;;;;;11.83;11.13;;;18.10;17.20;;;;;;5099092;28;20437;-73
2021/05/10 06:01:29;;;;;;;12.03;11.00;;;18.10;17.40;;;;;;5098921;28;20233;-73
2021/05/10 06:03:55;;;;;;;12.37;11.70;;;18.20;17.80;;;;;;5098515;28;20415;-72
2021/05/10 06:06:21;;;;;;;12.40;11.60;;;18.30;17.40;;;;;;5099005;28;20563;-73
2021/05/10 06:08:47;;;;;;;12.03;11.43;;;18.50;18.40;;;;;;5096935;28;20421;-72
2021/05/10 06:11:12;;;;;;;13.27;12.63;;;19.20;40.10;;;;;;5098158;28;20309;-71
2021/05/10 06:13:38;;;;;;;14.60;13.70;;;19.60;38.00;;;;;;5098427;28;20536;-73
2021/05/10 06:16:05;;;;;;;15.17;14.47;;;20.00;41.80;;;;;;5097551;28;20708;-71
2021/05/10 06:18:31;;;;;;;16.37;15.67;;;21.00;43.40;;;;;;5098777;28;20174;-72
2021/05/10 06:21:00;;;;;;;17.60;16.67;;;21.90;25.00;;;;;;5095975;28;20422;-71
2021/05/10 06:23:26;;;;;;;18.57;17.57;;;;;;;;;;5095358;28;20567;-73
2021/05/10 06:25:52;;;;;;;18.50;17.80;;;24.30;5.60;;;;;;5093948;28;20544;-74
2021/05/10 06:28:18;;;;;;;18.93;18.03;;;;;;;;;;5093038;28;20408;-73
2021/05/10 06:30:44;;;;;;;19.37;18.67;;;;;;;;;;5094845;28;20650;-74
2021/05/10 06:33:10;;;;;;;20.13;19.23;;;;;;;;;;5094964;28;20627;-75
2021/05/10 06:35:36;;;;;;;20.30;19.47;;;;;;;;;;5094714;28;20940;-72
2021/05/10 06:38:01;;;;;;;20.13;19.13;;;28.10;1.00;;;;;;5110313;28;20411;-73
2021/05/10 06:40:27;;;;;;;21.20;20.30;;;28.00;1.00;;;;;;5093433;28;20469;-72
2021/05/10 06:42:52;;;;;;;21.13;20.23;;;26.90;3.80;;;;;;5093638;28;20205;-73
2021/05/10 06:45:18;;;;;;;21.73;19.93;;;25.70;5.40;;;;;;5093246;28;20564;-74
2021/05/10 06:47:43;;;;;;;20.80;19.60;;;24.90;6.40;;;;;;5093143;28;20169;-72
2021/05/10 06:50:11;;;;;;;20.70;19.63;;;24.30;6.70;;;;;;5093621;28;20165;-72
2021/05/10 06:52:36;;;;;;;24.10;18.77;;;23.60;8.10;;;;;;5093531;28;20174;-74
2021/05/10 06:55:04;;;;;;;19.83;18.93;;;23.20;9.70;;;;;;5093204;28;20491;-74
2021/05/10 06:57:30;;;;;;;18.60;17.80;;;22.90;9.60;;;;;;5092920;28;20174;-74
2021/05/10 06:59:55;;;;;;;18.73;17.90;;;22.70;10.00;;;;;;5093198;28;20786;-72
2021/05/10 07:02:22;;;;;;;18.20;17.40;;;22.50;10.10;;;;;;5094503;28;20205;-73
2021/05/10 07:04:48;;;;;;;18.97;18.03;;;22.20;10.80;;;;;;5094267;28;20162;-74
2021/05/10 07:07:14;;;;;;;19.20;18.33;;;22.00;10.30;;;;;;5093948;28;20412;-73
2021/05/10 07:09:40;;;;;;;17.60;16.87;;;22.10;9.90;;;;;;5092608;28;20823;-71
2021/05/10 07:12:05;;;;;;;19.20;18.30;;;22.20;9.60;;;;;;5094160;28;20176;-74
2021/05/10 07:14:31;;;;;;;18.23;17.43;;;22.20;9.40;;;;;;5093754;28;20184;-75
2021/05/10 07:16:57;;;;;;;18.83;18.00;;;22.20;11.10;;;;;;5093574;28;20189;-73
2021/05/10 07:19:22;;;;;;;18.73;17.83;;;22.20;9.90;;;;;;5093423;28;20211;-73
2021/05/10 07:21:48;;;;;;;18.80;18.00;;;22.40;9.90;;;;;;5093082;28;20210;-72
2021/05/10 07:24:14;;;;;;;18.30;17.60;;;22.70;8.60;;;;;;5093042;28;20178;-71
2021/05/10 07:26:39;;;;;;;18.50;17.80;;;22.90;9.10;;;;;;5093500;28;20189;-74
2021/05/10 07:29:05;;;;;;;19.50;18.70;;;23.00;8.10;;;;;;5093387;28;20165;-73
2021/05/10 07:31:31;;;;;;;19.30;18.50;;;22.90;7.50;;;;;;5092117;28;20176;-74
2021/05/10 07:33:56;;;;;;;20.90;19.90;;;22.90;8.00;;;;;;5093240;28;20700;-73
2021/05/10 07:36:22;;;;;;;19.30;18.50;;;22.80;7.60;;;;;;5093162;28;20203;-73
2021/05/10 07:38:48;;;;;;;19.70;18.90;;;22.70;7.40;;;;;;5093376;28;20281;-71
2021/05/10 07:41:13;;;;;;;19.77;18.87;;;22.50;8.10;;;;;;5094295;28;20181;-73
2021/05/10 07:43:39;;;;;;;18.83;18.13;;;22.40;9.20;;;;;;5094120;28;20551;-73
2021/05/10 07:46:05;;;;;;;20.17;19.00;;;22.30;9.10;;;;;;5093952;28;20193;-73
2021/05/10 07:48:30;;;;;;;19.30;18.37;;;22.30;8.20;;;;;;5093764;28;20177;-72
2021/05/10 07:50:56;;;;;;;19.07;18.37;;;22.30;8.90;;;;;;5093408;28;20172;-72
2021/05/10 07:53:22;;;;;;;18.70;17.80;;;22.30;9.10;;;;;;5093401;28;20551;-73
2021/05/10 07:55:49;;;;;;;18.30;17.60;;;22.40;8.60;;;;;;5092694;28;20255;-72
2021/05/10 07:58:20;;;;;;;19.13;18.33;;;22.60;8.00;;;;;;5093675;28;20172;-71
2021/05/10 08:00:46;;;;;;;19.27;18.43;;;22.70;8.50;;;;;;5093299;28;20414;-73
2021/05/10 08:03:13;;;;;;;20.30;19.40;;;22.70;9.00;;;;;;5092924;28;20850;-72
2021/05/10 08:05:40;;;;;;;19.50;18.70;;;22.70;7.40;;;;;;5093183;28;20209;-72
2021/05/10 08:08:07;;;;;;;19.77;18.97;;;22.70;7.80;;;;;;5108871;28;20415;-73
2021/05/10 08:10:33;;;;;;;19.83;18.77;;;22.80;7.50;;;;;;5092492;28;20414;-74
2021/05/10 08:12:58;;;;;;;19.63;18.73;;;22.80;8.30;;;;;;5093259;28;20407;-74
2021/05/10 08:15:25;;;;;;;19.57;18.60;;;23.00;8.30;;;;;;5092725;28;20442;-74
2021/05/10 08:17:50;;;;;;;19.67;18.77;;;23.10;8.40;;;;;;5092488;28;20594;-73
2021/05/10 08:20:16;;;;;;;20.73;19.53;;;23.40;8.50;;;;;;5096039;28;20462;-71
2021/05/10 08:22:43;;;;;;;21.17;19.50;;;23.70;8.60;;;;;;5096304;28;20216;-75
2021/05/10 08:25:11;;;;;;;21.03;20.13;;;24.00;6.90;;;;;;5096243;28;20476;-72
2021/05/10 08:27:36;;;;;;;21.00;19.90;;;24.30;5.30;;;;;;5095176;28;20408;-72
2021/05/10 08:30:07;;;;;;;20.23;19.23;;;24.50;5.00;;;;;;5095864;28;20457;-71
2021/05/10 08:32:33;;;;;;;20.50;19.60;;;24.30;4.30;;;;;;5096271;28;20711;-75
2021/05/10 08:34:59;;;;;;;20.53;19.73;;;24.50;5.00;;;;;;5094693;28;20439;-75
2021/05/10 08:37:26;;;;;;;21.23;20.33;;;25.40;3.30;;;;;;5094733;28;20411;-74
2021/05/10 08:39:52;;;;;;;21.23;20.23;;;26.40;2.40;;;;;;5095435;28;20205;-73
2021/05/10 08:42:18;;;;;;;21.40;20.50;;;27.60;2.10;;;;;;5098155;28;20458;-72
2021/05/10 08:44:43;;;;;;;21.50;20.60;;;28.50;1.30;;;;;;5098713;28;20170;-73
2021/05/10 08:47:09;;;;;;;22.17;21.03;;;28.70;1.00;;;;;;5097948;28;20173;-74
2021/05/10 08:49:35;;;;;;;20.93;19.93;;;28.40;1.00;;;;;;5096884;28;20585;-74
2021/05/10 08:52:01;;;;;;;20.60;19.80;;;28.00;1.20;;;;;;5096890;28;20189;-74
2021/05/10 08:54:27;;;;;;;20.27;19.47;;;27.20;1.10;;;;;;5094655;28;20443;-73
2021/05/10 08:56:54;;;;;;;21.33;20.33;;;26.80;1.50;;;;;;5096316;28;20300;-74
2021/05/10 08:59:21;;;;;;;20.33;19.53;;;26.50;2.50;;;;;;5099061;28;20443;-71
2021/05/10 09:01:59;;;;;;;20.80;19.70;;;26.40;1.90;;;;;;5100792;28;20515;-74
2021/05/10 09:04:33;;;;;;;20.33;19.53;;;26.30;2.30;;;;;;5100470;28;20411;-73
2021/05/10 09:07:19;;;;;;;20.70;19.70;;;26.10;2.20;;;;;;5098090;28;20513;-72
2021/05/10 09:10:05;;;;;;;19.90;18.80;;;25.90;3.10;;;;;;5095798;28;20403;-73
2021/05/10 09:12:48;;;;;;;20.10;19.27;;;26.00;3.70;;;;;;5096165;28;20410;-73
2021/05/10 09:15:32;;;;;;;19.80;19.00;;;26.00;3.20;;;;;;5111228;28;20464;-73
2021/05/10 09:18:06;;;;;;;19.37;18.57;;;25.70;4.00;;;;;;5095307;28;20411;-73
2021/05/10 09:20:34;;;;;;;19.70;18.80;;;25.50;4.40;;;;;;5095644;28;20407;-72
2021/05/10 09:23:14;;;;;;;19.80;19.00;;;25.70;4.90;;;;;;5095478;28;20462;-74
2021/05/10 09:25:45;;;;;;;20.20;19.40;;;26.20;5.30;;;;;;5095575;28;20427;-72
2021/05/10 09:28:17;;;;;;;21.20;20.20;;;26.50;3.40;;;;;;5095654;28;20414;-72
2021/05/10 09:30:45;;;;;;;21.30;20.20;;;26.60;4.20;;;;;;5094344;28;20464;-74
2021/05/10 09:33:26;;;;;;;19.87;19.10;;;26.70;3.00;;;;;;5095906;28;20419;-71
2021/05/10 09:36:02;;;;;;;20.40;19.60;;;26.80;2.60;;;;;;5096637;28;20431;-73
2021/05/10 09:38:29;;;;;;;20.67;19.87;;;26.60;2.50;;;;;;5096052;28;20419;-73
2021/05/10 09:41:00;;;;;;;21.57;20.50;;;26.50;4.30;;;;;;5095571;28;20465;-72
2021/05/10 09:43:35;;;;;;;20.17;19.37;;;26.60;5.00;;;;;;5096072;28;20451;-73
2021/05/10 09:46:10;;;;;;;21.20;20.20;;;26.60;4.80;;;;;;5095582;28;20513;-73
2021/05/10 09:48:38;;;;;;;20.23;19.33;;;26.40;4.70;;;;;;5111126;28;20437;-72
2021/05/10 09:51:05;;;;;;;20.97;20.07;;;26.30;5.50;;;;;;5095041;28;20765;-73
2021/05/10 09:53:47;;;;;;;20.67;19.77;;;26.30;5.50;;;;;;5093724;28;20442;-73
2021/05/10 09:56:16;;;;;;;21.33;20.43;;;26.20;5.80;;;;;;5107673;22;20494;-70
2021/05/10 09:58:44;;;;;;;21.00;20.10;;;26.10;5.20;;;;;;5092988;28;20439;-70
2021/05/10 10:01:10;;;;;;;19.90;19.10;;;26.10;4.90;;;;;;5093018;28;20430;-70
2021/05/10 10:03:38;;;;;;;21.20;20.30;;;26.00;5.00;;;;;;5091662;28;20459;-70
2021/05/10 10:06:06;;;;;;;21.37;20.47;;;26.10;3.80;;;;;;5093166;28;20713;-71
2021/05/10 10:08:32;;;;;;;21.23;20.23;;;26.10;4.70;;;;;;5092878;28;20971;-70
2021/05/10 10:10:58;;;;;;;20.27;19.40;;;26.00;5.00;;;;;;5092761;28;20506;-71
2021/05/10 10:13:24;;;;;;;20.10;19.30;;;26.10;5.90;;;;;;5092794;28;20172;-70
2021/05/10 10:15:50;;;;;;;21.00;19.87;;;26.20;6.20;;;;;;5092854;28;20446;-70
2021/05/10 10:18:20;;;;;;;21.60;20.20;;;26.20;5.50;;;;;;5092781;28;20924;-71
2021/05/10 10:20:48;;;;;;;22.03;20.80;;;26.30;6.10;;;;;;5092574;28;20173;-70
2021/05/10 10:23:16;;;;;;;20.70;19.80;;;26.30;5.60;;;;;;5092664;28;20508;-71
2021/05/10 10:25:43;;;;;;;20.50;19.53;;;26.30;6.70;;;;;;5092812;28;20474;-70
2021/05/10 10:28:09;;;;;;;19.30;18.50;;;26.10;7.50;;;;;;5091502;28;20415;-70
2021/05/10 10:30:41;;;;;;;20.53;19.57;;;25.50;9.20;;;;;;5092418;28;20915;-70
2021/05/10 10:33:14;;;;;;;19.07;18.33;;;25.40;9.70;;;;;;5092499;28;20419;-70
2021/05/10 10:35:43;;;;;;;19.30;18.50;;;25.30;10.10;;;;;;5092392;28;21189;-70
2021/05/10 10:38:12;;;;;;;19.27;18.37;;;24.80;10.90;;;;;;5092545;28;20957;-70
2021/05/10 10:40:39;;;;;;;19.00;18.20;;;24.80;10.90;;;;;;5091825;28;20430;-71
2021/05/10 10:43:27;;;;;;;18.60;17.80;;;24.70;10.80;;;;;;5092076;28;20817;-70
2021/05/10 10:46:26;;;;;;;19.30;18.40;;;24.70;10.80;;;;;;5092436;28;20916;-70
2021/05/10 10:48:53;;;;;;;18.90;17.90;;;24.70;10.80;;;;;;5092109;28;20407;-70
2021/05/10 10:51:20;;;;;;;18.10;17.30;;;24.50;11.10;;;;;;5092031;28;20404;-69
2021/05/10 10:53:54;;;;;;;17.93;17.23;;;24.40;11.40;;;;;;5091859;28;20810;-70
2021/05/10 10:56:53;;;;;;;17.80;17.10;;;24.00;11.60;;;;;;5092074;28;20450;-71
2021/05/10 10:59:26;;;;;;;17.20;16.50;;;23.70;12.10;;;;;;5091601;28;20423;-70
2021/05/10 11:01:52;;;;;;;16.20;15.50;;;23.50;12.60;;;;;;5091736;28;20503;-69
2021/05/10 11:04:29;;;;;;;16.00;15.30;;;23.40;13.90;;;;;;5090508;28;20419;-70
2021/05/10 11:06:55;;;;;;;16.73;15.77;;;23.20;13.40;;;;;;5092097;28;20426;-71
2021/05/10 11:09:46;;;;;;;16.50;15.70;;;23.20;13.50;;;;;;5090238;28;20406;-69
2021/05/10 11:12:50;;;;;;;16.67;15.67;;;23.20;13.50;;;;;;5091709;28;20403;-70
2021/05/10 11:15:34;;;;;;;16.13;15.43;;;23.30;13.50;;;;;;5091512;28;20453;-70
2021/05/10 11:18:02;;;;;;;17.03;15.63;;;23.20;13.50;;;;;;5091527;28;20800;-70
2021/05/10 11:20:43;;;;;;;15.40;14.70;;;23.10;13.50;;;;;;5091304;28;20435;-70
2021/05/10 11:23:24;;;;;;;17.27;16.20;;;23.10;13.70;;;;;;5091453;28;20459;-71
2021/05/10 11:25:55;;;;;;;15.87;15.27;;;23.20;13.60;;;;;;5091264;28;20423;-70
2021/05/10 11:28:29;;;;;;;15.13;14.50;;;23.40;13.60;;;;;;5107203;28;20424;-70
2021/05/10 11:31:00;;;;;;;15.20;14.60;;;23.20;14.10;;;;;;5091207;28;20406;-71
2021/05/10 11:33:51;;;;;;;15.37;14.70;;;23.10;14.20;;;;;;5091282;28;20418;-70
2021/05/10 11:36:27;;;;;;;15.20;14.60;;;23.10;14.20;;;;;;5089760;28;20431;-70
2021/05/10 11:38:56;;;;;;;15.30;14.70;;;23.10;14.10;;;;;;5090952;28;20824;-69
2021/05/10 11:41:37;;;;;;;14.87;14.13;;;23.00;14.10;;;;;;5091132;28;20412;-70
2021/05/10 11:44:06;;;;;;;15.10;14.60;;;23.00;13.80;;;;;;5091293;28;20415;-70
2021/05/10 11:46:39;;;;;;;15.33;14.73;;;23.00;13.70;;;;;;5091061;28;20423;-71
2021/05/10 11:49:11;;;;;;;15.37;14.77;;;22.90;13.80;;;;;;5091038;28;20797;-70
2021/05/10 11:51:39;;;;;;;15.80;15.10;;;22.80;13.80;;;;;;5091322;28;20399;-70
2021/05/10 11:54:09;;;;;;;14.57;14.00;;;22.70;13.10;;;;;;5090232;28;20407;-70
2021/05/10 11:56:44;;;;;;;15.77;15.07;;;22.50;13.40;;;;;;5091235;28;20500;-70
2021/05/10 11:59:32;;;;;;;14.90;14.30;;;22.30;13.40;;;;;;5090754;28;20457;-70
2021/05/10 12:01:58;;;;;;;13.60;13.00;;;22.00;13.60;;;;;;5091174;28;20493;-70
2021/05/10 12:04:29;;;;;;;13.73;13.23;;;22.00;14.20;;;;;;5091220;28;20468;-70
2021/05/10 12:06:55;;;;;;;14.00;13.50;;;22.00;14.60;;;;;;5091170;28;20428;-70
2021/05/10 12:09:42;;;;;;;14.17;13.63;;;22.00;14.40;;;;;;5090622;28;20771;-70
2021/05/10 12:12:14;;;;;;;13.90;13.30;;;21.80;14.70;;;;;;5091006;28;20403;-71
2021/05/10 12:14:53;;;;;;;13.63;13.13;;;21.80;15.20;;;;;;5091042;28;20479;-71
2021/05/10 12:17:26;;;;;;;14.37;13.77;;;21.90;14.60;;;;;;5090999;28;20431;-70
2021/05/10 12:19:58;;;;;;;13.87;13.20;;;21.80;14.80;;;;;;5090774;28;20407;-70
2021/05/10 12:22:26;;;;;;;13.10;12.50;;;21.90;14.80;;;;;;5090857;28;20451;-70
2021/05/10 12:25:08;;;;;;;13.83;13.00;;;21.90;14.60;;;;;;5090757;28;20439;-70
2021/05/10 12:28:02;;;;;;;13.10;12.60;;;21.90;15.00;;;;;;5090873;28;20438;-71
2021/05/10 12:30:49;;;;;;;13.53;13.00;;;21.80;14.80;;;;;;5090632;28;20765;-72
2021/05/10 12:33:17;;;;;;;12.30;11.90;;;21.70;15.40;;;;;;5091069;28;20407;-72
2021/05/10 12:35:48;;;;;;;12.43;11.90;;;21.60;15.80;;;;;;5090473;28;20442;-72
2021/05/10 12:38:30;;;;;;;12.33;11.83;;;21.70;15.90;;;;;;5089564;28;20437;-72
2021/05/10 12:40:57;;;;;;;13.53;12.53;;;21.70;15.80;;;;;;5089108;28;20430;-71
2021/05/10 12:43:27;;;;;;;13.23;12.70;;;21.80;15.90;;;;;;5090787;28;20459;-69